Lessines, Belgium
Current Conditions -  °F | °C
As of 12:25 PM on Sunday 23 Nov 2014 (Local Time) from EBCV Reporting Station
Few Clouds Few Clouds  
Wind Chill: 59°   Ceiling: Unl
Heat Index: 59°   Visibility: 6mi
Dew Point: 52°   Wind: 6mph
Humidity: 77%   Direction: 180°S
Pressure: 30"   Gusts: NA
Location:  50.71°N, 3.84°E
Report Text: EBCV 231125Z AUTO 18005KT 9999 FEW200/// 15/11 Q1016 BLU
Loading
Personal Weather Stations






























Interactive Weather Map New forecast layout! Learn more

10-Day Weather Forecast

Advertisements
Track Severe Weather on mobile